Manama, Bahrain

1:57 PM +03 on December 10, 2019 (GMT +0300)
Bahrain International | | Change Station

Elev 7 ft 26.27 °N, 50.65 °E | Updated 27 minutes ago

Partly Cloudy
Partly Cloudy
73 °F
Feels Like 73 °F
N
7
Wind Variable Wind from NE

Today
High -- | Low -- °F
--% Chance of Precip.
Yesterday
High -- | Low -- °F
Precip. -- in
Pressure 29.95 in
Visibility 6.2 miles
Clouds Few 1500 ft
Scattered Clouds 2500 ft
Few 4000 ft
Dew Point 68 °F
Humidity 83%
Rainfall 0.00 in
Snow Depth Not available.
6:14 AM 4:46 PM
Waxing Gibbous, 97% visible
METAR OBBI 101030Z 04006KT 9999 FEW015 SCT025 FEW040CB 23/20 Q1014 TEMPO 33020G30KT 5000 TSRA
Pressure 29.95 in
Visibility 6.2 miles
Clouds Few 1500 ft
Scattered Clouds 2500 ft
Few 4000 ft
Dew Point 68 °F
Humidity 83%
Rainfall 0.00 in
Snow Depth Not available.
6:14 AM 4:46 PM
Waxing Gibbous, 97% visible
METAR OBBI 101030Z 04006KT 9999 FEW015 SCT025 FEW040CB 23/20 Q1014 TEMPO 33020G30KT 5000 TSRA

Get Severe Weather Alerts

Thanks for signing up!

Be on the lookout for a verification email in your inbox.

You'll start receiving the daily forecast at 6 AM.

×

10-Day Weather Forecast

No radar image for this location.
×

Almanac

Astronomy

Dec. 10, 2019 Rise Set
Actual Time
Civil Twilight
Nautical Twilight
Astronomical Twilight
Moon
Length of Visible Light
Length of Day
Tomorrow will be .
, % of the Moon is Illuminated

Today's Extremes

Country Highs Country Lows

Community

WunderPhotos

Category 6

Welcome to Category 6. This is the collective home for Weather Underground's featured writeups by Dr. Jeff Masters (right), Bob Henson (left), Chris Burt, and other regular contributors.

Nearby

Air Quality

  Air Quality AQ Index Pollutant
Not available.

Snow Depth

Station Depth Elevation

Earthquake Activity

City Distance Mag. Time & Date
Minimum magnitude displayed is 2.5.

Coastal Water Temperatures

Place Temperature

Stations

Nearby Weather Stations

Station Location Temp. Windchill Dew Point Humidity Wind Precip. Elev Updated Type